Barrow Island Airport

Airport
ICAO code: 
YBWX
IATA Code: 
BWB
Summary
ICAO Region: 
APAC
Territory: 
Location: 
Barrow Island, Western Australia
Serving: 
Barrow Island
Elevation: 
26 ft
Coordinates: 
Aerial View: 
20° 47' 52.8" S, 115° 24' 21.6" E
Metar
Observation
YBWX 290300Z AUTO 06007KT //// // ////// 31/20 Q1009
Station
Barrow Island Airport
Date/Time
2021-11-29 03:00:00
Wind direction
60°
Wind speed
07 kts
Lowest cloud amount
n/a
Temperature
31°C
Dew point
20°C
Humidity
52%
QNH
1009 hPa
Weather condition
n/a

Runways

Designator Length Width Surface Rops
3/21 1900 30 ASP No/No
Airport map: 
Aerial View: 

SKYbrary Partners:

Safety knowledge contributed by: